Time;durP1;ratioP1;P1;durP2;ratioP2;P2;SDS_P1;SDS_P2;PMS_P1;PMS_P2;Temp;Humidity;BMP_temperature;BMP_pressure;BME280_temperature;BME280_humidity;BME280_pressure;Samples;Min_cycle;Max_cycle;Signal;HPM_P1;HPM_P2
2022/06/12 00:01:57;;;;;;;;;;;;;;;30.71;22.99;98725.09;5044778;28;19924;-79
2022/06/12 00:04:23;;;;;;;;;;;;;;;30.71;22.86;98713.75;5046163;28;19917;-79
2022/06/12 00:06:50;;;;;;;;;;;;;;;30.73;22.51;98713.28;5042286;28;19928;-79
2022/06/12 00:09:16;;;;;;;;;;;;;;;30.69;22.80;98706.97;5044747;28;19917;-79
2022/06/12 00:11:44;;;;;;;;;;;;;;;30.72;22.45;98709.66;5045092;28;20272;-79
2022/06/12 00:14:11;;;;;;;;;;;;;;;30.51;22.58;98707.66;5037946;28;20006;-79
2022/06/12 00:16:40;;;;;;;;;;;;;;;30.13;23.42;98709.88;5045006;28;19924;-79
2022/06/12 00:19:07;;;;;;;;;;;;;;;29.94;23.72;98708.16;5040296;28;19917;-78
2022/06/12 00:21:33;;;;;;;;;;;;;;;30.07;23.24;98706.84;5036063;28;20007;-79
2022/06/12 00:24:01;;;;;;;;;;;;;;;30.05;23.35;98691.56;5039450;28;19924;-79
2022/06/12 00:26:29;;;;;;;;;;;;;;;29.93;23.42;98706.56;5045521;28;20316;-78
2022/06/12 00:28:59;;;;;;;;;;;;;;;29.95;23.45;98702.03;5043551;28;20331;-79
2022/06/12 00:31:25;;;;;;;;;;;;;;;30.01;23.43;98705.84;5044121;28;19967;-79
2022/06/12 00:33:51;;;;;;;;;;;;;;;30.15;23.43;98698.91;5042641;28;19924;-78
2022/06/12 00:36:17;;;;;;;;;;;;;;;30.12;23.23;98702.63;5034673;28;19920;-78
2022/06/12 00:38:43;;;;;;;;;;;;;;;30.19;23.22;98699.53;5044964;28;19944;-78
2022/06/12 00:41:09;;;;;;;;;;;;;;;30.37;22.84;98693.22;5044524;28;19974;-78
2022/06/12 00:43:35;;;;;;;;;;;;;;;30.55;22.45;98693.38;5029334;28;19925;-78
2022/06/12 00:46:01;;;;;;;;;;;;;;;30.44;22.74;98690.13;5047404;28;19970;-78
2022/06/12 00:48:29;;;;;;;;;;;;;;;30.27;22.80;98692.34;5042583;28;19947;-79
2022/06/12 00:51:01;;;;;;;;;;;;;;;30.31;22.31;98686.56;5044626;28;20016;-78
2022/06/12 00:53:30;;;;;;;;;;;;;;;29.93;22.56;98679.06;5045987;28;19982;-79
2022/06/12 00:56:00;;;;;;;;;;;;;;;29.91;22.56;98692.88;5042708;28;19917;-78
2022/06/12 00:58:28;;;;;;;;;;;;;;;29.73;22.85;98689.06;5046061;28;20304;-79
2022/06/12 01:00:54;;;;;;;;;;;;;;;29.73;23.23;98678.53;5045206;28;20007;-79
2022/06/12 01:03:21;;;;;;;;;;;;;;;29.41;23.61;98682.47;5042916;28;20368;-79
2022/06/12 01:08:32;;;;;;;;;;;;;;;29.72;23.23;98673.31;5046177;28;19970;-78
2022/06/12 01:11:01;;;;;;;;;;;;;;;29.80;22.92;98675.47;5048242;28;20322;-79
2022/06/12 01:13:29;;;;;;;;;;;;;;;29.91;23.04;98673.06;5043285;28;19925;-79
2022/06/12 01:15:57;;;;;;;;;;;;;;;30.09;22.58;98675.22;5043985;28;19989;-79
2022/06/12 01:18:26;;;;;;;;;;;;;;;30.16;22.69;98674.16;5046945;28;20365;-79
2022/06/12 01:21:04;;;;;;;;;;;;;;;30.14;22.18;98668.97;5042296;28;19948;-79
2022/06/12 01:23:34;;;;;;;;;;;;;;;30.11;22.51;98669.88;5044357;28;19917;-78
2022/06/12 01:26:08;;;;;;;;;;;;;;;29.95;22.69;98665.22;5045686;28;19917;-78
2022/06/12 01:28:35;;;;;;;;;;;;;;;29.90;22.38;98673.50;5041455;28;19917;-79
2022/06/12 01:31:07;;;;;;;;;;;;;;;29.89;22.99;98666.28;5043401;28;19924;-79
2022/06/12 01:33:33;;;;;;;;;;;;;;;29.99;22.65;98670.75;5043433;28;19963;-78
2022/06/12 01:36:04;;;;;;;;;;;;;;;30.03;22.59;98665.75;5040960;28;20453;-79
2022/06/12 01:39:02;;;;;;;;;;;;;;;30.11;22.26;98663.47;5044226;28;20458;-78
2022/06/12 01:41:41;;;;;;;;;;;;;;;30.24;22.20;98669.81;5023780;28;19925;-78
2022/06/12 01:44:27;;;;;;;;;;;;;;;30.25;22.06;98666.53;5045379;28;19923;-78
2022/06/12 01:46:59;;;;;;;;;;;;;;;30.17;22.22;98665.22;5045577;28;19928;-78
2022/06/12 01:49:43;;;;;;;;;;;;;;;30.20;22.47;98664.28;5041670;28;19952;-78
2022/06/12 01:52:28;;;;;;;;;;;;;;;30.28;22.34;98654.28;5044827;28;20417;-78
2022/06/12 01:55:13;;;;;;;;;;;;;;;30.25;22.34;98660.06;5044039;28;19986;-78
2022/06/12 01:57:39;;;;;;;;;;;;;;;30.22;22.10;98656.13;5042944;28;20412;-79
2022/06/12 02:00:15;;;;;;;;;;;;;;;30.17;22.38;98662.38;5043145;28;19924;-78
2022/06/12 02:03:03;;;;;;;;;;;;;;;30.11;22.68;98669.88;5040735;28;19963;-78
2022/06/12 02:05:51;;;;;;;;;;;;;;;30.18;22.27;98669.63;5042940;28;19936;-78
2022/06/12 02:08:23;;;;;;;;;;;;;;;30.23;21.96;98669.03;5042218;28;19926;-78
2022/06/12 02:10:54;;;;;;;;;;;;;;;30.00;22.44;98675.97;5044711;28;19929;-78
2022/06/12 02:13:30;;;;;;;;;;;;;;;29.61;22.66;98681.41;5043056;28;20003;-78
2022/06/12 02:16:03;;;;;;;;;;;;;;;29.55;23.01;98681.19;5041198;28;19956;-78
2022/06/12 02:18:29;;;;;;;;;;;;;;;29.74;23.04;98682.13;5039783;28;19924;-78
2022/06/12 02:21:14;;;;;;;;;;;;;;;29.72;22.45;98676.94;5042679;28;19921;-78
2022/06/12 02:23:50;;;;;;;;;;;;;;;29.61;22.35;98676.53;5026217;28;19935;-78
2022/06/12 02:26:19;;;;;;;;;;;;;;;29.67;22.35;98673.91;5041586;28;20373;-78
2022/06/12 02:28:49;;;;;;;;;;;;;;;29.59;22.62;98676.22;5043091;28;19983;-78
2022/06/12 02:31:17;;;;;;;;;;;;;;;29.62;22.47;98672.44;5044155;28;20631;-78
2022/06/12 02:33:45;;;;;;;;;;;;;;;29.84;22.17;98676.16;5042112;28;19917;-78
2022/06/12 02:36:11;;;;;;;;;;;;;;;29.86;22.06;98670.81;5041255;28;20269;-78
2022/06/12 02:38:44;;;;;;;;;;;;;;;29.84;22.23;98676.16;5041709;28;19935;-77
2022/06/12 02:41:10;;;;;;;;;;;;;;;29.92;22.29;98668.97;5040883;28;20005;-78
2022/06/12 02:43:38;;;;;;;;;;;;;;;29.96;21.91;98672.47;5041631;28;19963;-77
2022/06/12 02:46:07;;;;;;;;;;;;;;;29.85;22.37;98674.13;5043892;28;19917;-78
2022/06/12 02:48:33;;;;;;;;;;;;;;;29.98;22.57;98672.00;5042152;28;19944;-78
2022/06/12 02:51:09;;;;;;;;;;;;;;;30.14;22.29;98674.63;5037138;28;19921;-78
2022/06/12 02:53:46;;;;;;;;;;;;;;;30.27;22.14;98669.69;5037694;28;19921;-78
2022/06/12 02:56:18;;;;;;;;;;;;;;;30.34;22.08;98677.16;5038233;28;19921;-78
2022/06/12 02:58:50;;;;;;;;;;;;;;;30.03;21.97;98669.38;5035522;28;20380;-78
2022/06/12 03:01:22;;;;;;;;;;;;;;;29.74;22.47;98677.28;5040191;28;19956;-78
2022/06/12 03:03:55;;;;;;;;;;;;;;;30.12;22.06;98685.63;5034454;28;22944;-78
2022/06/12 03:06:24;;;;;;;;;;;;;;;30.34;21.60;98675.09;5038004;28;19924;-78
2022/06/12 03:08:50;;;;;;;;;;;;;;;30.36;21.93;98686.00;5038085;28;19927;-78
2022/06/12 03:11:18;;;;;;;;;;;;;;;30.33;22.15;98679.22;5037618;28;20369;-78
2022/06/12 03:13:47;;;;;;;;;;;;;;;30.15;22.38;98679.06;5036515;28;19913;-78
2022/06/12 03:16:16;;;;;;;;;;;;;;;30.34;21.85;98675.09;5036173;28;20015;-78
2022/06/12 03:18:48;;;;;;;;;;;;;;;30.47;21.65;98681.50;5040239;28;19959;-77
2022/06/12 03:21:21;;;;;;;;;;;;;;;30.50;21.90;98676.94;5040449;28;19917;-78
2022/06/12 03:23:59;;;;;;;;;;;;;;;30.57;22.10;98676.69;5042238;28;19955;-77
2022/06/12 03:26:37;;;;;;;;;;;;;;;30.46;21.92;98684.78;5041437;28;19913;-78
2022/06/12 03:29:04;;;;;;;;;;;;;;;30.50;21.78;98677.72;5044429;28;19963;-78
2022/06/12 03:31:49;;;;;;;;;;;;;;;30.15;22.12;98681.09;5040521;28;19975;-78
2022/06/12 03:34:28;;;;;;;;;;;;;;;30.11;23.29;98684.06;5041233;28;19963;-78
2022/06/12 03:37:06;;;;;;;;;;;;;;;30.94;23.17;98675.63;5039358;28;19978;-78
2022/06/12 03:39:35;;;;;;;;;;;;;;;31.77;23.16;98680.22;5040195;28;19924;-78
2022/06/12 03:42:14;;;;;;;;;;;;;;;32.28;22.76;98680.41;5043942;28;20411;-78
2022/06/12 03:44:57;;;;;;;;;;;;;;;32.77;22.39;98686.59;5038085;28;20319;-78
2022/06/12 03:47:46;;;;;;;;;;;;;;;33.29;22.09;98691.78;5042133;28;20004;-78
2022/06/12 03:50:25;;;;;;;;;;;;;;;33.61;22.32;98683.72;5042904;28;20334;-78
2022/06/12 03:53:06;;;;;;;;;;;;;;;33.61;21.86;98687.31;5043976;28;19925;-78
2022/06/12 03:58:36;;;;;;;;;;;;;;;33.52;21.88;98687.38;5044537;28;19989;-78
2022/06/12 04:01:02;;;;;;;;;;;;;;;33.63;21.67;98681.94;5047516;28;20011;-79
2022/06/12 04:03:31;;;;;;;;;;;;;;;33.47;22.02;98693.72;5046886;28;19988;-78
2022/06/12 04:05:59;;;;;;;;;;;;;;;33.29;22.17;98694.63;5042258;28;20385;-78
2022/06/12 04:08:27;;;;;;;;;;;;;;;33.19;21.85;98695.16;5046290;28;19916;-79
2022/06/12 04:10:54;;;;;;;;;;;;;;;33.13;21.33;98702.78;5040804;28;19929;-79
2022/06/12 04:13:22;;;;;;;;;;;;;;;33.04;22.01;98697.91;5045151;28;20351;-78
2022/06/12 04:15:56;;;;;;;;;;;;;;;32.86;21.91;98689.41;5044821;28;19936;-79
2022/06/12 04:18:23;;;;;;;;;;;;;;;32.79;22.19;98692.63;5031859;28;20357;-79
2022/06/12 04:20:58;;;;;;;;;;;;;;;32.63;22.43;98698.66;5043980;28;19982;-78
2022/06/12 04:23:30;;;;;;;;;;;;;;;32.99;22.75;98697.75;5046762;28;19928;-79
2022/06/12 04:26:00;;;;;;;;;;;;;;;33.39;22.44;98704.69;5046534;28;20007;-79
2022/06/12 04:28:26;;;;;;;;;;;;;;;33.48;22.63;98703.06;5044564;28;19971;-80
2022/06/12 04:30:53;;;;;;;;;;;;;;;33.50;22.39;98707.00;5041610;28;19928;-80
2022/06/12 04:33:19;;;;;;;;;;;;;;;33.40;23.00;98711.16;5042203;28;19925;-79
2022/06/12 04:35:49;;;;;;;;;;;;;;;33.55;23.20;98697.81;5041478;28;19924;-79
2022/06/12 04:38:15;;;;;;;;;;;;;;;34.09;22.26;98708.06;5044284;28;20012;-78
2022/06/12 04:40:41;;;;;;;;;;;;;;;34.37;22.08;98709.38;5041213;28;19920;-78
2022/06/12 04:43:07;;;;;;;;;;;;;;;34.66;21.98;98697.19;5046700;28;20303;-79
2022/06/12 04:45:33;;;;;;;;;;;;;;;34.70;22.28;98710.00;5039906;28;19980;-79
2022/06/12 04:48:01;;;;;;;;;;;;;;;35.05;21.46;98712.97;5042528;28;20011;-79
2022/06/12 04:50:27;;;;;;;;;;;;;;;35.38;21.70;98716.31;5042579;28;19916;-79
2022/06/12 04:52:53;;;;;;;;;;;;;;;35.88;20.52;98713.38;5041555;28;20466;-79
2022/06/12 04:55:19;;;;;;;;;;;;;;;36.28;20.58;98715.44;5044865;28;20019;-80
2022/06/12 04:57:45;;;;;;;;;;;;;;;36.44;19.68;98715.63;5041176;28;20001;-79
2022/06/12 05:00:11;;;;;;;;;;;;;;;36.14;20.79;98714.25;5043630;28;20379;-80
2022/06/12 05:02:37;;;;;;;;;;;;;;;36.04;19.84;98713.63;5042859;28;19924;-79
2022/06/12 05:05:03;;;;;;;;;;;;;;;36.30;19.97;98724.31;5044675;28;19971;-79
2022/06/12 05:07:29;;;;;;;;;;;;;;;36.64;19.39;98726.28;5044720;28;19917;-79
2022/06/12 05:09:55;;;;;;;;;;;;;;;36.82;19.62;98725.91;5033181;28;20592;-79
2022/06/12 05:12:21;;;;;;;;;;;;;;;36.89;19.43;98724.66;5041438;28;19924;-80
2022/06/12 05:14:47;;;;;;;;;;;;;;;37.13;19.19;98720.19;5041477;28;19923;-79
2022/06/12 05:17:15;;;;;;;;;;;;;;;37.31;19.03;98724.78;5046247;28;19919;-80
2022/06/12 05:19:42;;;;;;;;;;;;;;;37.11;18.88;98716.31;5042131;28;19917;-78
2022/06/12 05:22:09;;;;;;;;;;;;;;;36.99;19.67;98721.16;5044686;28;19923;-79
2022/06/12 05:24:36;;;;;;;;;;;;;;;37.07;19.63;98716.53;5045208;28;19920;-79
2022/06/12 05:27:04;;;;;;;;;;;;;;;36.71;19.94;98715.13;5044606;28;20007;-79
2022/06/12 05:29:31;;;;;;;;;;;;;;;36.22;20.72;98715.41;5046205;28;19917;-81
2022/06/12 05:31:57;;;;;;;;;;;;;;;35.91;21.44;98720.97;5047874;28;19952;-81
2022/06/12 05:34:25;;;;;;;;;;;;;;;35.60;22.70;98721.59;5045271;28;20349;-80
2022/06/12 05:36:51;;;;;;;;;;;;;;;36.45;20.92;98719.31;5030055;28;19924;-80
2022/06/12 05:39:18;;;;;;;;;;;;;;;37.00;20.44;98728.44;5046243;28;19982;-80
2022/06/12 05:41:45;;;;;;;;;;;;;;;37.51;19.90;98723.91;5048338;28;19924;-81
2022/06/12 05:44:12;;;;;;;;;;;;;;;37.46;20.06;98722.53;5048734;28;19917;-80
2022/06/12 05:46:39;;;;;;;;;;;;;;;37.72;20.06;98728.94;5041911;28;19917;-81
2022/06/12 05:49:05;;;;;;;;;;;;;;;37.98;19.33;98726.78;5045715;28;20319;-80
2022/06/12 05:51:32;;;;;;;;;;;;;;;38.21;18.71;98729.72;5043475;28;19924;-79
2022/06/12 05:53:58;;;;;;;;;;;;;;;38.41;18.61;98732.41;5042975;28;20053;-80
2022/06/12 05:56:25;;;;;;;;;;;;;;;38.52;18.28;98735.31;5044405;28;19966;-80
2022/06/12 05:58:52;;;;;;;;;;;;;;;38.64;18.63;98726.22;5045853;28;19925;-79
2022/06/12 06:01:19;;;;;;;;;;;;;;;38.77;18.71;98730.69;5044635;28;19920;-80
2022/06/12 06:03:46;;;;;;;;;;;;;;;39.00;18.73;98729.41;5047430;28;19931;-78
2022/06/12 06:06:14;;;;;;;;;;;;;;;39.08;18.59;98727.56;5041591;28;20066;-78
2022/06/12 06:08:40;;;;;;;;;;;;;;;39.11;18.69;98729.38;5046256;28;20284;-77
2022/06/12 06:11:07;;;;;;;;;;;;;;;39.12;18.45;98725.97;5049622;28;19917;-78
2022/06/12 06:13:34;;;;;;;;;;;;;;;39.16;18.54;98726.53;5041215;28;19920;-78
2022/06/12 06:16:01;;;;;;;;;;;;;;;39.26;18.41;98733.56;5041995;28;19920;-79
2022/06/12 06:18:27;;;;;;;;;;;;;;;39.16;18.03;98732.28;5046958;28;19921;-78
2022/06/12 06:20:53;;;;;;;;;;;;;;;38.91;18.26;98729.66;5039423;28;19971;-78
2022/06/12 06:23:19;;;;;;;;;;;;;;;38.97;18.47;98733.31;5041257;28;19924;-78
2022/06/12 06:25:45;;;;;;;;;;;;;;;39.04;18.95;98732.78;5046409;28;19913;-77
2022/06/12 06:28:11;;;;;;;;;;;;;;;39.26;18.96;98729.91;5044987;28;19943;-77
2022/06/12 06:30:38;;;;;;;;;;;;;;;39.36;18.08;98729.13;5044548;28;19927;-78
2022/06/12 06:33:04;;;;;;;;;;;;;;;39.31;18.11;98729.91;5045272;28;19928;-78
2022/06/12 06:35:30;;;;;;;;;;;;;;;38.97;17.82;98733.31;5039896;28;19916;-78
2022/06/12 06:37:56;;;;;;;;;;;;;;;38.96;17.69;98725.97;5041168;28;20277;-78
2022/06/12 06:40:23;;;;;;;;;;;;;;;39.16;17.89;98717.91;5042566;28;20388;-78
2022/06/12 06:43:00;;;;;;;;;;;;;;;39.46;17.86;98715.28;5041255;28;19929;-82
2022/06/12 06:48:16;;;;;;;;;;;;;;;39.25;17.83;98726.28;5019921;28;20314;-80
2022/06/12 06:50:43;;;;;;;;;;;;;;;38.91;18.02;98721.81;5026546;28;19927;-80
2022/06/12 06:53:09;;;;;;;;;;;;;;;38.93;18.24;98727.03;5023484;28;20262;-79
2022/06/12 06:55:36;;;;;;;;;;;;;;;38.62;17.40;98736.63;5013644;28;19922;-80
2022/06/12 06:58:05;;;;;;;;;;;;;;;38.44;18.71;98731.38;5018038;28;19932;-81
2022/06/12 07:00:32;;;;;;;;;;;;;;;38.92;18.86;98728.34;5014401;28;19993;-81
2022/06/12 07:02:58;;;;;;;;;;;;;;;39.21;17.60;98730.72;5032588;28;20020;-79
2022/06/12 07:05:25;;;;;;;;;;;;;;;39.36;17.58;98713.97;5021686;28;19921;-81
2022/06/12 07:07:51;;;;;;;;;;;;;;;39.50;17.65;98721.53;5017024;28;20023;-81
2022/06/12 07:10:20;;;;;;;;;;;;;;;39.54;17.94;98721.28;5016866;28;19926;-81
2022/06/12 07:12:46;;;;;;;;;;;;;;;39.63;18.35;98724.66;5013897;28;19988;-79
2022/06/12 07:15:12;;;;;;;;;;;;;;;39.81;17.84;98721.22;5018826;28;20019;-80
2022/06/12 07:17:39;;;;;;;;;;;;;;;39.76;17.37;98721.22;5015952;28;20026;-79
2022/06/12 07:20:06;;;;;;;;;;;;;;;39.04;17.14;98724.97;5018434;28;19932;-79
2022/06/12 07:22:32;;;;;;;;;;;;;;;38.15;18.53;98723.97;5017969;28;19925;-79
2022/06/12 07:24:58;;;;;;;;;;;;;;;38.42;17.97;98722.50;5018076;28;19922;-79
2022/06/12 07:27:24;;;;;;;;;;;;;;;38.07;18.31;98722.88;5015063;28;19924;-79
2022/06/12 07:29:50;;;;;;;;;;;;;;;37.11;18.89;98716.31;5019505;28;19921;-79
2022/06/12 07:32:16;;;;;;;;;;;;;;;36.64;19.50;98712.72;5018072;28;19917;-79
2022/06/12 07:34:42;;;;;;;;;;;;;;;36.57;20.10;98710.31;5012611;28;19979;-78
2022/06/12 07:37:08;;;;;;;;;;;;;;;36.67;19.49;98723.16;5008117;28;20393;-79
2022/06/12 07:39:34;;;;;;;;;;;;;;;36.96;19.47;98719.31;5018919;28;19918;-79
2022/06/12 07:42:01;;;;;;;;;;;;;;;36.27;20.66;98708.16;5026855;28;19990;-79
2022/06/12 07:44:28;;;;;;;;;;;;;;;35.36;20.82;98703.81;5043483;28;19964;-79
2022/06/12 07:46:56;;;;;;;;;;;;;;;35.82;20.70;98707.63;5036102;28;19940;-80
2022/06/12 07:49:23;;;;;;;;;;;;;;;36.57;19.67;98704.59;5034108;28;20302;-80
2022/06/12 07:51:49;;;;;;;;;;;;;;;35.58;20.75;98703.38;5036454;28;19936;-79
2022/06/12 07:54:16;;;;;;;;;;;;;;;34.59;22.37;98709.81;5021330;28;20087;-80
2022/06/12 07:56:42;;;;;;;;;;;;;;;35.26;20.77;98710.94;5021385;28;19929;-79
2022/06/12 07:59:08;;;;;;;;;;;;;;;36.24;19.46;98709.16;5005687;28;19960;-79
2022/06/12 08:01:36;;;;;;;;;;;;;;;36.26;18.86;98709.44;5026548;28;20400;-79
2022/06/12 08:04:02;;;;;;;;;;;;;;;36.36;19.23;98708.00;5022651;28;19929;-81
2022/06/12 08:06:29;;;;;;;;;;;;;;;35.95;21.16;98702.31;5023845;28;19921;-81
2022/06/12 08:08:57;;;;;;;;;;;;;;;35.28;21.78;98702.66;5007587;28;19929;-81
2022/06/12 08:11:24;;;;;;;;;;;;;;;33.90;22.28;98703.75;5023330;28;19929;-81
2022/06/12 08:15:52;;;;;;;3.70;0.50;;;;;;;34.42;21.68;98700.16;5099869;27;20954;-81
2022/06/12 08:18:22;;;;;;;0.40;0.40;;;;;;;34.70;22.10;98694.97;5094551;28;20044;-81
2022/06/12 08:20:55;;;;;;;0.43;0.40;;;;;;;35.15;22.36;98694.41;5098279;28;20068;-82
2022/06/12 08:23:29;;;;;;;0.63;0.63;;;;;;;33.90;21.45;98703.75;5097262;28;20027;-82
2022/06/12 08:26:21;;;;;;;1.40;0.60;;;;;;;33.32;21.41;98699.38;5098375;28;20027;-81
2022/06/12 08:28:51;;;;;;;0.68;0.57;;;;;;;34.26;22.00;98696.97;5100284;28;20395;-81
2022/06/12 08:31:22;;;;;;;1.95;0.90;;;;;;;33.93;22.02;98691.38;5101979;28;20392;-82
2022/06/12 08:33:51;;;;;;;1.95;0.73;;;;;;;34.40;22.31;98693.34;5093714;28;20036;-81
2022/06/12 08:36:19;;;;;;;2.72;0.50;;;;;;;34.79;21.22;98688.34;5096316;28;20403;-82
2022/06/12 08:38:47;;;;;;;0.40;0.40;;;;;;;35.91;19.55;98687.47;5099173;28;20042;-82
2022/06/12 08:41:42;;;;;;;0.82;0.52;;;;;;;36.88;19.59;98683.78;5097027;28;20042;-81
2022/06/12 08:44:22;;;;;;;0.55;0.30;;;;;;;35.42;19.94;98673.28;5098251;28;22490;-81
2022/06/12 08:47:09;;;;;;;1.08;0.60;;;;;;;33.10;22.38;98690.28;5097459;28;20036;-82
2022/06/12 08:49:50;;;;;;;0.55;0.55;;;;;;;32.60;25.33;98683.34;5095814;28;20034;-82
2022/06/12 08:52:16;;;;;;;1.05;0.77;;;;;;;33.31;22.26;98682.75;5095070;28;20752;-85
2022/06/12 08:54:55;;;;;;;1.10;0.60;;;;;;;33.74;22.67;98682.19;5091799;28;20043;-85
2022/06/12 08:57:48;;;;;;;1.00;0.70;;;;;;;33.56;21.34;98688.00;5088874;28;20040;-82
2022/06/12 09:00:19;;;;;;;1.20;0.63;;;;;;;35.67;20.50;98672.59;5090099;28;20109;-83
2022/06/12 09:02:46;;;;;;;1.13;0.57;;;;;;;34.79;20.35;98677.72;5088615;28;20503;-83
2022/06/12 09:05:17;;;;;;;0.85;0.70;;;;;;;33.98;21.60;98677.22;5090854;28;20035;-83
2022/06/12 09:08:29;;;;;;;1.10;0.60;;;;;;;34.93;20.92;98664.72;5094777;28;20733;-83
2022/06/12 09:11:15;;;;;;;0.57;0.50;;;;;;;35.36;20.17;98664.63;5062586;28;20161;-82
2022/06/12 09:14:09;;;;;;;0.40;0.40;;;;;;;35.33;19.56;98659.13;5090934;28;20030;-83
2022/06/12 09:16:57;;;;;;;1.05;0.50;;;;;;;36.45;19.14;98667.81;5097655;28;20150;-83
2022/06/12 09:19:43;;;;;;;0.77;0.50;;;;;;;35.31;20.69;98655.97;5093704;28;20036;-82
2022/06/12 09:22:44;;;;;;;0.50;0.43;;;;;;;35.47;20.17;98658.28;5095301;28;20032;-81
2022/06/12 09:25:25;;;;;;;0.93;0.60;;;;;;;36.10;20.18;98655.72;5088212;28;20652;-82
2022/06/12 09:28:31;;;;;;;0.50;0.50;;;;;;;35.04;20.65;98650.63;5082408;28;20040;-83
2022/06/12 09:31:10;;;;;;;0.70;0.68;;;;;;;34.82;20.26;98647.41;5080764;28;20043;-82
2022/06/12 09:34:06;;;;;;;1.80;0.60;;;;;;;33.97;21.14;98657.78;5079596;28;20044;-82
2022/06/12 09:36:57;;;;;;;0.65;0.52;;;;;;;34.85;20.02;98643.56;5075201;28;20052;-82
2022/06/12 09:39:32;;;;;;;0.60;0.50;;;;;;;34.53;22.65;98631.91;5077438;28;20097;-83
2022/06/12 09:42:17;;;;;;;0.70;0.50;;;;;;;34.13;20.74;98639.44;5079716;28;20096;-82
2022/06/12 09:45:04;;;;;;;1.55;0.77;;;;;;;34.02;21.78;98631.44;5079423;28;20036;-82
2022/06/12 09:47:56;;;;;;;0.88;0.60;;;;;;;33.99;21.67;98624.66;5083494;28;20024;-83
2022/06/12 09:50:57;;;;;;;2.08;1.00;;;;;;;34.43;22.89;98623.91;5080380;28;20028;-83
2022/06/12 09:53:26;;;;;;;1.77;1.08;;;;;;;33.72;21.42;98624.13;5048907;28;20159;-83
2022/06/12 09:56:00;;;;;;;2.65;0.90;;;;;;;34.28;22.54;98620.28;5078554;28;20054;-82
2022/06/12 09:58:48;;;;;;;1.15;0.70;;;;;;;33.19;21.15;98624.00;5083380;28;20036;-82
2022/06/12 10:01:19;;;;;;;0.88;0.70;;;;;;;35.11;20.38;98619.63;5079133;28;20028;-82
2022/06/12 10:04:00;;;;;;;1.50;0.80;;;;;;;35.23;20.29;98620.56;5084796;28;20036;-82
2022/06/12 10:06:36;;;;;;;1.33;0.70;;;;;;;35.25;20.57;98615.13;5079455;28;20039;-82
2022/06/12 10:09:10;;;;;;;1.27;0.60;;;;;;;35.54;19.50;98603.59;5077233;28;22581;-84
2022/06/12 10:11:51;;;;;;;0.80;0.55;;;;;;;35.97;19.19;98607.47;5078045;28;20426;-82
2022/06/12 10:14:26;;;;;;;2.20;0.77;;;;;;;34.43;19.54;98607.59;5083677;28;20101;-82
2022/06/12 10:16:57;;;;;;;1.02;0.52;;;;;;;35.50;20.29;98603.03;5082478;28;20469;-82
2022/06/12 10:19:50;;;;;;;1.77;0.70;;;;;;;36.12;21.24;98604.53;5087209;28;20471;-82
2022/06/12 10:22:29;;;;;;;1.05;0.80;;;;;;;34.96;20.48;98600.94;5085427;28;20032;-82
2022/06/12 10:25:00;;;;;;;1.00;0.63;;;;;;;35.11;20.40;98608.19;5077391;28;20052;-82
2022/06/12 10:27:43;;;;;;;1.00;0.50;;;;;;;35.02;20.62;98593.25;5084606;28;20040;-82
2022/06/12 10:30:34;;;;;;;3.10;0.80;;;;;;;34.91;20.17;98581.66;5081306;28;20550;-82
2022/06/12 10:33:20;;;;;;;0.55;0.55;;;;;;;34.46;20.37;98594.41;5086899;28;20570;-81
2022/06/12 10:35:55;;;;;;;1.20;0.70;;;;;;;35.48;19.32;98582.72;5083657;28;20705;-81
2022/06/12 10:38:24;;;;;;;1.67;0.75;;;;;;;37.16;18.83;98590.31;5082906;28;20052;-81
2022/06/12 10:40:58;;;;;;;0.65;0.60;;;;;;;36.48;18.98;98578.88;5083744;28;20032;-81
2022/06/12 10:43:33;;;;;;;0.88;0.73;;;;;;;35.79;18.96;98587.78;5086956;28;20494;-82
2022/06/12 10:46:15;;;;;;;1.15;0.70;;;;;;;35.08;20.80;98580.63;5087222;28;20032;-81
2022/06/12 10:48:42;;;;;;;1.25;0.60;;;;;;;36.32;19.50;98570.13;5088298;28;20036;-81
2022/06/12 10:51:17;;;;;;;0.70;0.60;;;;;;;36.63;18.42;98567.28;5084081;28;20032;-82
2022/06/12 10:53:43;;;;;;;0.55;0.55;;;;;;;35.72;20.64;98569.00;5085786;28;20047;-82
2022/06/12 10:56:51;;;;;;;0.60;0.60;;;;;;;35.02;19.10;98561.88;5088311;28;20028;-81
2022/06/12 10:59:57;;;;;;;1.13;0.60;;;;;;;36.33;20.09;98566.78;5085362;28;20044;-82
2022/06/12 11:02:43;;;;;;;0.50;0.50;;;;;;;37.33;17.00;98571.13;5085192;28;20419;-83
2022/06/12 11:05:31;;;;;;;0.52;0.52;;;;;;;38.14;18.04;98564.63;5082463;28;20746;-82
2022/06/12 11:08:35;;;;;;;1.48;0.40;;;;;;;39.02;16.16;98569.59;5084755;28;20075;-82
2022/06/12 11:11:16;;;;;;;0.70;0.32;;;;;;;38.72;16.74;98562.06;5084909;28;20046;-82
2022/06/12 11:14:10;;;;;;;0.68;0.47;;;;;;;37.77;16.54;98570.53;5083849;28;20063;-82
2022/06/12 11:16:48;;;;;;;0.63;0.40;;;;;;;37.57;18.36;98567.09;5085167;28;20031;-82
2022/06/12 11:19:38;;;;;;;0.45;0.40;;;;;;;36.81;18.21;98566.88;5084965;28;20032;-82
2022/06/12 11:22:30;;;;;;;;;;;;;;;37.40;17.33;98578.47;5085664;28;20040;-82
2022/06/12 11:25:26;;;;;;;0.85;0.40;;;;;;;36.44;18.57;98563.22;5084646;28;19961;-82
2022/06/12 11:28:25;;;;;;;1.15;0.60;;;;;;;34.99;19.69;98575.03;5084526;28;20508;-82
2022/06/12 11:31:28;;;;;;;0.82;0.50;;;;;;;35.06;19.81;98562.44;5080534;28;20103;-82
2022/06/12 11:34:06;;;;;;;1.08;0.60;;;;;;;35.70;21.10;98563.00;5082634;28;20032;-82
2022/06/12 11:36:47;;;;;;;0.90;0.52;;;;;;;35.65;19.85;98563.72;5083643;28;20033;-82
2022/06/12 11:39:25;;;;;;;0.55;0.50;;;;;;;38.15;18.06;98556.81;5084260;28;20028;-83
2022/06/12 11:42:20;;;;;;;1.08;0.52;;;;;;;39.50;16.38;98542.50;5082940;28;20036;-82
2022/06/12 11:45:06;;;;;;;0.98;0.43;;;;;;;40.59;16.41;98537.34;5085212;28;20089;-82
2022/06/12 11:47:48;;;;;;;0.35;0.35;;;;;;;41.48;14.81;98535.59;5085954;28;20036;-82
2022/06/12 11:50:17;;;;;;;0.30;0.30;;;;;;;40.91;16.28;98533.94;5079090;28;20107;-83
2022/06/12 11:53:08;;;;;;;0.52;0.47;;;;;;;38.19;16.26;98535.16;5081594;28;20035;-83
2022/06/12 11:55:40;;;;;;;0.65;0.32;;;;;;;38.32;16.75;98528.94;5083596;28;20516;-83
2022/06/12 11:58:28;;;;;;;0.30;0.30;;;;;;;38.35;17.47;98534.41;5080225;28;20032;-82
2022/06/12 12:01:17;;;;;;;6.90;0.30;;;;;;;38.36;17.57;98530.25;5082594;28;20089;-83
2022/06/12 12:04:02;;;;;;;0.50;0.30;;;;;;;36.66;17.55;98534.81;5081204;28;20518;-83
2022/06/12 12:06:39;;;;;;;0.20;0.20;;;;;;;36.91;18.19;98524.53;5079945;28;20028;-82
2022/06/12 12:09:14;;;;;;;1.02;0.50;;;;;;;36.14;18.38;98521.88;5079981;28;20068;-81
2022/06/12 12:11:49;;;;;;;0.70;0.50;;;;;;;37.30;17.69;98512.00;5086112;28;20024;-81
2022/06/12 12:14:30;;;;;;;0.73;0.50;;;;;;;36.19;20.11;98507.63;5085161;28;20055;-82
2022/06/12 12:17:02;;;;;;;0.60;0.40;;;;;;;36.78;19.03;98509.91;5084114;28;20031;-81
2022/06/12 12:19:51;;;;;;;0.50;0.50;;;;;;;37.09;17.90;98504.88;5084498;28;20077;-81
2022/06/12 12:22:36;;;;;;;1.23;0.40;;;;;;;36.91;16.59;98501.63;5081289;28;20495;-81
2022/06/12 12:25:28;;;;;;;1.83;0.28;;;;;;;36.81;16.86;98497.44;5085581;28;20032;-81
2022/06/12 12:27:59;;;;;;;0.43;0.40;;;;;;;37.68;17.34;98504.03;5079102;28;20448;-81
2022/06/12 12:33:22;;;;;;;0.20;0.20;;;;;;;38.41;17.43;98492.16;5084504;28;19942;-81
2022/06/12 12:41:53;;;;;;;0.20;0.20;;;;;;;37.60;16.67;98498.03;5083462;28;20089;-81
2022/06/12 12:44:33;;;;;;;0.20;0.20;;;;;;;38.40;17.52;98490.56;5087312;28;20047;-81
2022/06/12 12:47:01;;;;;;;0.30;0.30;;;;;;;39.01;16.66;98493.31;5092169;28;20989;-80
2022/06/12 12:49:35;;;;;;;0.60;0.20;;;;;;;39.53;17.08;98493.38;5083735;28;20028;-81
2022/06/12 12:52:10;;;;;;;0.20;0.20;;;;;;;40.00;16.58;98486.25;5078572;28;20037;-81
2022/06/12 12:55:16;;;;;;;0.20;0.20;;;;;;;38.39;15.64;98485.38;5087828;28;20109;-81
2022/06/12 12:57:44;;;;;;;1.38;0.30;;;;;;;37.40;16.99;98489.66;5077092;28;20052;-81
2022/06/12 13:00:16;;;;;;;0.30;0.30;;;;;;;38.23;16.65;98486.91;5084623;28;20028;-81
2022/06/12 13:03:23;;;;;;;0.45;0.20;;;;;;;38.59;17.51;98476.44;5089627;28;20110;-81
2022/06/12 13:05:59;;;;;;;0.55;0.20;;;;;;;38.47;17.60;98472.03;5044067;28;20425;-81
2022/06/12 13:08:34;;;;;;;3.47;0.20;;;;;;;38.81;17.29;98472.78;5085117;28;20066;-82
2022/06/12 13:11:35;;;;;;;0.20;0.20;;;;;;;37.94;17.55;98470.22;5087930;28;20032;-82